createdAt,value
2019-03-31T00:00:32.949Z,10.93
2019-03-31T00:03:08.307Z,10.58
2019-03-31T00:06:40.708Z,9.97
2019-03-31T00:09:16.287Z,11.13
2019-03-31T00:11:51.653Z,10.30
2019-03-31T00:14:27.935Z,10.20
2019-03-31T00:17:03.325Z,9.87
2019-03-31T00:19:38.694Z,9.80
2019-03-31T00:22:14.133Z,10.10
2019-03-31T00:24:49.604Z,10.78
2019-03-31T00:27:25.253Z,10.18
2019-03-31T00:30:00.700Z,10.72
2019-03-31T00:32:36.285Z,10.90
2019-03-31T00:35:12.280Z,9.40
2019-03-31T00:37:47.697Z,10.68
2019-03-31T00:40:23.255Z,10.05
2019-03-31T00:42:58.772Z,9.77
2019-03-31T00:45:34.273Z,9.90
2019-03-31T00:48:09.659Z,9.10
2019-03-31T00:50:45.275Z,8.87
2019-03-31T00:53:20.653Z,8.20
2019-03-31T00:55:56.263Z,8.93
2019-03-31T00:58:31.655Z,8.57
2019-03-31T01:01:35.746Z,9.03
2019-03-31T01:04:01.939Z,9.28
2019-03-31T01:06:39.491Z,9.07
2019-03-31T01:09:35.623Z,9.75
2019-03-31T01:12:11.276Z,9.70
2019-03-31T01:14:47.298Z,9.00
2019-03-31T01:17:23.590Z,9.67
2019-03-31T01:20:00.953Z,8.90
2019-03-31T01:22:36.341Z,8.53
2019-03-31T01:25:13.651Z,9.80
2019-03-31T01:27:49.289Z,8.57
2019-03-31T01:30:25.120Z,9.00
2019-03-31T01:33:00.531Z,8.93
2019-03-31T01:35:35.892Z,9.30
2019-03-31T01:40:44.782Z,9.27
2019-03-31T01:43:20.330Z,9.80
2019-03-31T01:45:55.798Z,10.13
2019-03-31T01:48:31.303Z,10.05
2019-03-31T01:51:06.960Z,8.63
2019-03-31T01:53:42.687Z,9.37
2019-03-31T01:56:18.286Z,9.73
2019-03-31T01:58:53.790Z,9.00
2019-03-31T02:01:30.712Z,9.40
2019-03-31T02:06:40.684Z,9.43
2019-03-31T02:09:16.283Z,8.50
2019-03-31T02:11:51.680Z,8.17
2019-03-31T02:14:27.274Z,8.77
2019-03-31T02:17:02.766Z,8.57
2019-03-31T02:19:38.276Z,8.20
2019-03-31T02:22:13.676Z,9.13
2019-03-31T02:24:49.287Z,8.77
2019-03-31T02:27:25.661Z,9.78
2019-03-31T02:30:01.352Z,8.33
2019-03-31T02:35:10.882Z,7.97
2019-03-31T02:40:19.958Z,8.03
2019-03-31T02:45:28.655Z,8.30
2019-03-31T02:48:04.281Z,8.83
2019-03-31T02:50:51.694Z,9.23
2019-03-31T02:53:27.292Z,8.20
2019-03-31T02:56:03.283Z,8.55
2019-03-31T02:58:39.755Z,8.60
2019-03-31T03:01:18.294Z,9.17
2019-03-31T03:03:53.790Z,8.07
2019-03-31T03:08:11.283Z,8.15
2019-03-31T03:10:47.660Z,8.80
2019-03-31T03:13:25.487Z,9.07
2019-03-31T03:16:20.286Z,8.45
2019-03-31T03:18:55.742Z,8.83
2019-03-31T03:21:31.568Z,8.23
2019-03-31T03:24:07.273Z,8.33
2019-03-31T03:26:42.702Z,8.00
2019-03-31T03:29:18.312Z,8.65
2019-03-31T03:31:53.753Z,9.05
2019-03-31T03:37:03.690Z,9.38
2019-03-31T03:39:40.132Z,8.75
2019-03-31T03:42:15.682Z,7.77
2019-03-31T03:44:51.283Z,7.53
2019-03-31T03:47:26.680Z,8.00
2019-03-31T03:50:02.138Z,8.73
2019-03-31T03:52:37.685Z,8.33
2019-03-31T03:55:13.273Z,9.20
2019-03-31T03:57:48.684Z,8.77
2019-03-31T04:02:57.680Z,9.17
2019-03-31T04:05:33.250Z,8.83
2019-03-31T04:08:08.681Z,9.33
2019-03-31T04:11:20.598Z,8.90
2019-03-31T04:13:53.279Z,7.73
2019-03-31T04:16:29.593Z,9.50
2019-03-31T04:21:39.676Z,9.37
2019-03-31T04:26:48.796Z,9.10
2019-03-31T04:31:57.790Z,9.23
2019-03-31T04:34:33.268Z,8.40
2019-03-31T04:37:08.668Z,7.73
2019-03-31T04:39:44.282Z,8.13
2019-03-31T04:42:19.748Z,8.80
2019-03-31T04:44:55.275Z,7.83
2019-03-31T04:47:30.758Z,9.17
2019-03-31T04:50:06.273Z,8.00
2019-03-31T04:52:41.703Z,8.17
2019-03-31T04:55:17.265Z,8.13
2019-03-31T04:57:52.819Z,8.20
2019-03-31T05:03:01.744Z,8.45
2019-03-31T05:05:37.209Z,8.73
2019-03-31T05:08:12.667Z,8.33
2019-03-31T05:10:48.259Z,8.83
2019-03-31T05:13:23.700Z,8.03
2019-03-31T05:15:59.284Z,7.65
2019-03-31T05:18:34.694Z,9.45
2019-03-31T05:21:10.274Z,9.00
2019-03-31T05:23:45.666Z,8.20
2019-03-31T05:27:05.773Z,8.60
2019-03-31T05:32:14.867Z,8.77
2019-03-31T05:34:50.268Z,8.60
2019-03-31T05:37:25.687Z,9.00
2019-03-31T05:40:01.275Z,9.35
2019-03-31T05:42:36.703Z,8.27
2019-03-31T05:45:12.270Z,8.87
2019-03-31T05:47:47.704Z,8.55
2019-03-31T05:50:23.247Z,8.77
2019-03-31T05:52:58.713Z,8.40
2019-03-31T05:55:34.276Z,8.57
2019-03-31T05:58:09.673Z,8.93
2019-03-31T06:00:49.087Z,8.87
2019-03-31T06:03:24.630Z,8.90
2019-03-31T06:06:00.240Z,8.65
2019-03-31T06:08:35.689Z,7.83
2019-03-31T06:11:11.264Z,8.65
2019-03-31T06:13:46.686Z,8.97
2019-03-31T06:16:22.269Z,8.87
2019-03-31T06:18:57.680Z,8.75
2019-03-31T06:21:34.640Z,9.93
2019-03-31T06:24:10.270Z,10.03
2019-03-31T06:26:45.766Z,10.38
2019-03-31T06:31:54.871Z,10.23
2019-03-31T06:37:03.677Z,9.70
2019-03-31T06:39:39.267Z,10.82
2019-03-31T06:42:14.676Z,10.03
2019-03-31T06:44:50.278Z,10.20
2019-03-31T06:47:25.766Z,10.38
2019-03-31T06:52:34.655Z,10.58
2019-03-31T06:55:10.676Z,10.75
2019-03-31T06:57:46.177Z,10.60
2019-03-31T07:00:21.713Z,10.67
2019-03-31T07:02:57.275Z,11.27
2019-03-31T07:05:32.690Z,12.27
2019-03-31T07:08:08.309Z,11.70
2019-03-31T07:10:43.739Z,10.85
2019-03-31T07:13:22.278Z,12.78
2019-03-31T07:15:57.680Z,14.75
2019-03-31T07:18:34.285Z,14.90
2019-03-31T07:22:07.296Z,15.45
2019-03-31T07:24:43.270Z,14.90
2019-03-31T07:27:21.412Z,15.20
2019-03-31T07:29:57.109Z,15.08
2019-03-31T07:32:33.285Z,16.50
2019-03-31T07:35:18.524Z,18.17
2019-03-31T07:37:53.128Z,20.20
2019-03-31T07:40:29.937Z,19.57
2019-03-31T07:43:06.074Z,18.80
2019-03-31T07:48:17.806Z,18.70
2019-03-31T07:53:26.870Z,20.20
2019-03-31T07:56:02.253Z,20.08
2019-03-31T07:58:37.697Z,20.57
2019-03-31T08:03:46.862Z,27.47
2019-03-31T08:08:56.686Z,22.87
2019-03-31T08:11:33.882Z,22.40
2019-03-31T08:14:09.330Z,23.33
2019-03-31T08:16:45.670Z,23.22
2019-03-31T08:19:22.246Z,22.50
2019-03-31T08:21:58.246Z,22.42
2019-03-31T08:24:43.651Z,23.95
2019-03-31T08:27:19.324Z,22.80
2019-03-31T08:30:00.542Z,25.25
2019-03-31T08:32:32.403Z,26.57
2019-03-31T08:35:08.860Z,26.53
2019-03-31T08:37:44.332Z,24.53
2019-03-31T08:40:20.516Z,23.45
2019-03-31T08:42:55.968Z,23.12
2019-03-31T08:45:31.279Z,22.67
2019-03-31T08:48:06.770Z,23.30
2019-03-31T08:53:16.818Z,20.77
2019-03-31T08:58:25.694Z,21.20
2019-03-31T09:01:50.765Z,21.42
2019-03-31T09:04:26.341Z,20.80
2019-03-31T09:07:02.112Z,20.68
2019-03-31T09:09:37.895Z,20.37
2019-03-31T09:12:13.434Z,20.63
2019-03-31T09:14:48.869Z,22.82
2019-03-31T09:17:24.278Z,21.33
2019-03-31T09:20:00.702Z,21.57
2019-03-31T09:25:10.709Z,23.15
2019-03-31T09:27:46.149Z,22.23
2019-03-31T09:30:21.318Z,22.77
2019-03-31T09:32:56.672Z,21.70
2019-03-31T09:35:32.276Z,23.00
2019-03-31T09:38:07.662Z,22.60
2019-03-31T09:40:44.273Z,22.37
2019-03-31T09:43:19.891Z,23.07
2019-03-31T09:48:28.870Z,23.27
2019-03-31T09:53:37.866Z,24.40
2019-03-31T09:56:15.229Z,24.47
2019-03-31T09:58:50.283Z,21.80
2019-03-31T10:01:25.710Z,24.32
2019-03-31T10:04:01.283Z,21.90
2019-03-31T10:06:38.642Z,21.43
2019-03-31T10:09:14.276Z,21.27
2019-03-31T10:11:49.689Z,23.23
2019-03-31T10:14:25.271Z,23.42
2019-03-31T10:17:00.666Z,23.00
2019-03-31T10:19:36.283Z,22.82
2019-03-31T10:22:11.703Z,24.27
2019-03-31T10:27:20.823Z,22.97
2019-03-31T10:32:29.784Z,24.23
2019-03-31T10:37:38.648Z,23.17
2019-03-31T10:40:14.290Z,23.73
2019-03-31T10:42:49.647Z,24.57
2019-03-31T10:45:25.276Z,24.00
2019-03-31T10:48:00.652Z,24.27
2019-03-31T10:50:35.943Z,24.67
2019-03-31T10:53:11.274Z,25.30
2019-03-31T10:55:46.769Z,23.37
2019-03-31T11:00:55.776Z,29.30
2019-03-31T11:06:06.684Z,24.27
2019-03-31T11:08:42.206Z,23.60
2019-03-31T11:11:17.656Z,25.10
2019-03-31T11:13:53.133Z,23.07
2019-03-31T11:16:28.963Z,22.67
2019-03-31T11:19:04.304Z,23.67
2019-03-31T11:21:44.707Z,22.97
2019-03-31T11:24:20.278Z,23.47
2019-03-31T11:26:55.680Z,24.10
2019-03-31T11:32:04.692Z,23.37
2019-03-31T11:34:40.274Z,23.70
2019-03-31T11:37:15.688Z,25.48
2019-03-31T11:39:51.255Z,22.07
2019-03-31T11:42:26.687Z,22.43
2019-03-31T11:45:02.283Z,22.30
2019-03-31T11:47:37.655Z,23.07
2019-03-31T11:50:13.336Z,22.30
2019-03-31T11:52:48.684Z,21.82
2019-03-31T11:56:56.326Z,22.25
2019-03-31T11:59:31.712Z,21.53
2019-03-31T12:02:07.273Z,23.00
2019-03-31T12:04:45.279Z,23.53
2019-03-31T12:07:27.838Z,22.87
2019-03-31T12:09:57.722Z,22.73
2019-03-31T12:12:33.284Z,24.90
2019-03-31T12:15:09.310Z,23.53
2019-03-31T12:17:46.337Z,24.23
2019-03-31T12:20:21.678Z,24.00
2019-03-31T12:22:57.277Z,23.87
2019-03-31T12:25:32.669Z,23.93
2019-03-31T12:28:08.269Z,24.77
2019-03-31T12:30:43.672Z,22.53
2019-03-31T12:33:19.276Z,22.67
2019-03-31T12:35:54.661Z,22.30
2019-03-31T12:38:30.265Z,22.52
2019-03-31T12:41:05.695Z,21.87
2019-03-31T12:43:41.276Z,22.40
2019-03-31T12:48:46.936Z,22.70
2019-03-31T12:51:22.275Z,22.17
2019-03-31T12:53:57.688Z,22.90
2019-03-31T12:56:33.979Z,21.47
2019-03-31T12:59:09.537Z,20.97
2019-03-31T13:01:44.888Z,22.95
2019-03-31T13:06:53.887Z,21.30
2019-03-31T13:09:29.339Z,22.95
2019-03-31T13:12:05.106Z,23.60
2019-03-31T13:27:52.730Z,19.40
2019-03-31T13:30:28.266Z,20.70
2019-03-31T13:33:03.658Z,19.95
2019-03-31T13:35:39.475Z,21.33
2019-03-31T13:38:15.871Z,20.52
2019-03-31T13:43:26.127Z,20.80
2019-03-31T13:46:01.811Z,21.10
2019-03-31T13:51:10.714Z,42.27
2019-03-31T13:53:46.276Z,25.20
2019-03-31T13:56:21.776Z,19.95
2019-03-31T13:58:57.274Z,18.17
2019-03-31T14:01:33.827Z,17.30
2019-03-31T14:06:42.891Z,17.48
2019-03-31T14:09:18.320Z,17.80
2019-03-31T14:11:54.443Z,18.93
2019-03-31T14:14:30.266Z,26.70
2019-03-31T14:17:05.689Z,20.33
2019-03-31T14:19:41.345Z,17.03
2019-03-31T14:22:16.721Z,16.97
2019-03-31T14:27:25.679Z,17.57
2019-03-31T14:30:01.128Z,17.30
2019-03-31T14:32:48.831Z,18.40
2019-03-31T14:35:24.634Z,19.15
2019-03-31T14:38:00.733Z,19.77
2019-03-31T14:40:36.284Z,19.20
2019-03-31T14:43:11.948Z,18.07
2019-03-31T14:45:47.641Z,18.93
2019-03-31T14:48:23.299Z,18.67
2019-03-31T14:50:58.671Z,19.07
2019-03-31T14:53:34.289Z,19.77
2019-03-31T14:56:09.659Z,19.48
2019-03-31T14:58:45.274Z,19.43
2019-03-31T15:01:21.412Z,18.20
2019-03-31T15:03:56.877Z,18.87
2019-03-31T15:06:33.775Z,18.17
2019-03-31T15:10:30.557Z,18.75
2019-03-31T15:13:06.281Z,17.70
2019-03-31T15:15:42.364Z,19.83
2019-03-31T15:18:17.887Z,18.47
2019-03-31T15:20:53.271Z,32.93
2019-03-31T15:23:29.353Z,18.27
2019-03-31T15:26:05.087Z,16.70
2019-03-31T15:28:40.730Z,14.50
2019-03-31T15:33:50.269Z,15.00
2019-03-31T15:36:25.945Z,15.77
2019-03-31T15:39:08.661Z,14.70
2019-03-31T15:42:47.873Z,14.43
2019-03-31T15:45:23.304Z,14.53
2019-03-31T15:47:58.718Z,15.53
2019-03-31T15:53:07.946Z,14.75
2019-03-31T15:55:43.271Z,16.30
2019-03-31T15:58:18.736Z,15.43
2019-03-31T16:03:17.895Z,15.90
2019-03-31T16:05:53.375Z,15.50
2019-03-31T16:08:28.248Z,16.37
2019-03-31T16:11:04.957Z,15.87
2019-03-31T16:13:39.945Z,15.93
2019-03-31T16:16:14.656Z,17.80
2019-03-31T16:18:49.274Z,16.00
2019-03-31T16:21:51.325Z,16.45
2019-03-31T16:24:38.270Z,16.75
2019-03-31T16:27:13.251Z,15.60
2019-03-31T16:29:47.884Z,16.40
2019-03-31T16:40:01.655Z,16.73
2019-03-31T16:42:36.287Z,16.87
2019-03-31T16:45:11.119Z,17.47
2019-03-31T16:47:45.772Z,19.20
2019-03-31T16:52:53.854Z,16.07
2019-03-31T16:58:01.634Z,48.63
2019-03-31T17:00:36.272Z,25.20
2019-03-31T17:03:10.721Z,18.23
2019-03-31T17:15:57.620Z,17.25
2019-03-31T17:18:32.229Z,17.23
2019-03-31T17:22:26.067Z,16.93
2019-03-31T17:25:00.674Z,16.33
2019-03-31T17:27:35.251Z,16.57
2019-03-31T17:30:11.315Z,16.50
2019-03-31T17:32:45.918Z,17.40
2019-03-31T17:35:20.364Z,20.75
2019-03-31T17:37:55.241Z,17.93
2019-03-31T17:40:29.879Z,16.40
2019-03-31T17:48:11.467Z,15.45
2019-03-31T17:50:46.946Z,14.50
2019-03-31T17:53:21.339Z,14.33
2019-03-31T17:55:55.915Z,14.07
2019-03-31T17:58:30.290Z,12.30
2019-03-31T18:01:04.947Z,11.63
2019-03-31T18:06:12.409Z,10.40
2019-03-31T18:08:47.280Z,9.10
2019-03-31T18:11:21.771Z,9.47
2019-03-31T18:16:29.326Z,8.20
2019-03-31T18:19:04.135Z,7.17
2019-03-31T18:21:39.766Z,7.43
2019-03-31T18:26:47.271Z,7.40
2019-03-31T18:29:21.834Z,7.03
2019-03-31T18:34:29.326Z,7.43
2019-03-31T18:37:03.934Z,6.70
2019-03-31T18:39:38.270Z,7.07
2019-03-31T18:42:12.873Z,7.62
2019-03-31T18:44:47.325Z,7.40
2019-03-31T18:47:22.111Z,6.90
2019-03-31T18:49:57.653Z,6.60
2019-03-31T18:52:32.098Z,6.43
2019-03-31T18:55:28.466Z,6.17
2019-03-31T18:58:09.560Z,6.47
2019-03-31T19:00:52.764Z,6.10
2019-03-31T19:06:43.270Z,6.10
2019-03-31T19:09:54.681Z,6.03
2019-03-31T19:12:51.118Z,6.47
2019-03-31T19:15:43.334Z,6.22
2019-03-31T19:18:28.410Z,5.67
2019-03-31T19:21:40.264Z,6.10
2019-03-31T19:24:45.911Z,6.37
2019-03-31T19:27:32.951Z,5.33
2019-03-31T19:30:26.673Z,5.87
2019-03-31T19:33:08.274Z,5.67
2019-03-31T19:36:10.699Z,5.17
2019-03-31T19:44:41.720Z,5.13
2019-03-31T19:50:15.556Z,4.87
2019-03-31T19:53:08.682Z,4.80
2019-03-31T19:56:07.508Z,5.00
2019-03-31T19:58:52.874Z,4.77
2019-03-31T20:04:43.504Z,5.47
2019-03-31T20:07:36.558Z,4.87
2019-03-31T20:10:23.618Z,9.00
2019-03-31T20:13:10.284Z,5.60
2019-03-31T20:16:02.901Z,4.93
2019-03-31T20:19:02.382Z,4.87
2019-03-31T20:22:03.714Z,5.05
2019-03-31T20:24:55.613Z,5.17
2019-03-31T20:27:47.504Z,4.83
2019-03-31T20:30:43.681Z,4.73
2019-03-31T20:33:39.334Z,4.50
2019-03-31T20:36:43.637Z,4.73
2019-03-31T20:39:56.825Z,5.15
2019-03-31T20:42:45.404Z,4.50
2019-03-31T20:46:09.656Z,4.67
2019-03-31T20:48:44.081Z,4.92
2019-03-31T20:51:18.559Z,4.87
2019-03-31T20:53:53.073Z,4.85
2019-03-31T20:56:28.132Z,4.70
2019-03-31T20:59:02.974Z,4.05
2019-03-31T21:01:39.697Z,4.57
2019-03-31T21:04:14.268Z,4.95
2019-03-31T21:06:48.671Z,4.67
2019-03-31T21:09:23.081Z,5.07
2019-03-31T21:11:57.649Z,4.40
2019-03-31T21:14:33.681Z,4.75
2019-03-31T21:17:09.119Z,5.03
2019-03-31T21:19:43.883Z,5.17
2019-03-31T21:22:18.275Z,5.00
2019-03-31T21:24:52.934Z,5.03
2019-03-31T21:30:00.633Z,5.17
2019-03-31T21:32:35.112Z,4.93
2019-03-31T21:35:09.699Z,4.83
2019-03-31T21:37:44.046Z,4.55
2019-03-31T21:42:45.279Z,4.83
2019-03-31T21:47:04.714Z,5.30
2019-03-31T21:49:39.288Z,5.43
2019-03-31T21:52:14.273Z,4.77
2019-03-31T21:54:48.787Z,5.33
2019-03-31T21:57:23.115Z,5.23
2019-03-31T21:59:57.658Z,5.20
2019-03-31T22:02:31.946Z,4.93
2019-03-31T22:05:06.740Z,4.80
2019-03-31T22:07:41.292Z,4.90
2019-03-31T22:10:16.021Z,4.40
2019-03-31T22:12:50.585Z,4.80
2019-03-31T22:15:25.081Z,5.12
2019-03-31T22:17:59.671Z,5.43
2019-03-31T22:20:34.134Z,5.10
2019-03-31T22:23:08.947Z,4.67
2019-03-31T22:28:16.716Z,4.43
2019-03-31T22:31:37.651Z,4.35
2019-03-31T22:34:12.286Z,3.80
2019-03-31T22:36:46.794Z,4.13
2019-03-31T22:41:54.261Z,4.28
2019-03-31T22:44:28.689Z,4.23
2019-03-31T22:47:03.079Z,3.90
2019-03-31T22:49:38.693Z,3.97
2019-03-31T22:52:13.302Z,3.53
2019-03-31T22:54:47.749Z,3.47
2019-03-31T22:57:23.078Z,3.62
2019-03-31T22:59:57.691Z,4.10
2019-03-31T23:02:32.285Z,3.33
2019-03-31T23:05:06.736Z,3.22
2019-03-31T23:07:40.960Z,3.73
2019-03-31T23:10:15.121Z,3.70
2019-03-31T23:12:49.684Z,3.10
2019-03-31T23:15:24.096Z,3.62
2019-03-31T23:17:58.624Z,3.60
2019-03-31T23:20:33.277Z,3.37
2019-03-31T23:23:07.692Z,3.55
2019-03-31T23:25:41.948Z,3.17
2019-03-31T23:30:49.126Z,2.83
2019-03-31T23:33:23.676Z,3.17
2019-03-31T23:35:57.954Z,3.13
2019-03-31T23:38:32.087Z,3.40
2019-03-31T23:41:06.660Z,2.90
2019-03-31T23:43:44.263Z,2.57
2019-03-31T23:46:18.711Z,3.23
2019-03-31T23:48:52.955Z,3.10
2019-03-31T23:53:59.951Z,2.93
2019-03-31T23:59:07.592Z,3.17
